sensor_id;sensor_type;location;lat;lon;timestamp;P1;durP1;ratioP1;P2;durP2;ratioP2
75864;SDS011;64510;46.704;38.274;2023-01-20T00:00:09;39.20;;;19.42;;
75864;SDS011;64510;46.704;38.274;2023-01-20T00:02:38;42.63;;;16.67;;
75864;SDS011;64510;46.704;38.274;2023-01-20T00:05:04;52.13;;;21.40;;
75864;SDS011;64510;46.704;38.274;2023-01-20T00:07:30;44.08;;;18.05;;
75864;SDS011;64510;46.704;38.274;2023-01-20T00:09:59;46.88;;;19.90;;
75864;SDS011;64510;46.704;38.274;2023-01-20T00:12:25;42.97;;;18.75;;
75864;SDS011;64510;46.704;38.274;2023-01-20T00:14:50;35.20;;;16.85;;
75864;SDS011;64510;46.704;38.274;2023-01-20T00:17:16;37.40;;;19.75;;
75864;SDS011;64510;46.704;38.274;2023-01-20T00:19:42;37.13;;;14.70;;
75864;SDS011;64510;46.704;38.274;2023-01-20T00:22:08;43.42;;;19.98;;
75864;SDS011;64510;46.704;38.274;2023-01-20T00:24:36;45.05;;;21.60;;
75864;SDS011;64510;46.704;38.274;2023-01-20T00:27:02;45.63;;;20.55;;
75864;SDS011;64510;46.704;38.274;2023-01-20T00:29:28;42.63;;;19.65;;
75864;SDS011;64510;46.704;38.274;2023-01-20T00:31:54;45.67;;;19.25;;
75864;SDS011;64510;46.704;38.274;2023-01-20T00:34:20;53.85;;;21.00;;
75864;SDS011;64510;46.704;38.274;2023-01-20T00:36:46;44.35;;;17.58;;
75864;SDS011;64510;46.704;38.274;2023-01-20T00:39:11;35.60;;;13.85;;
75864;SDS011;64510;46.704;38.274;2023-01-20T00:41:37;29.73;;;13.90;;
75864;SDS011;64510;46.704;38.274;2023-01-20T00:44:03;40.38;;;17.50;;
75864;SDS011;64510;46.704;38.274;2023-01-20T00:46:29;32.67;;;15.20;;
75864;SDS011;64510;46.704;38.274;2023-01-20T00:48:55;26.48;;;14.40;;
75864;SDS011;64510;46.704;38.274;2023-01-20T00:51:21;40.13;;;18.23;;
75864;SDS011;64510;46.704;38.274;2023-01-20T00:53:48;52.33;;;23.67;;
75864;SDS011;64510;46.704;38.274;2023-01-20T00:56:14;37.90;;;20.27;;
75864;SDS011;64510;46.704;38.274;2023-01-20T00:58:43;37.35;;;17.75;;
75864;SDS011;64510;46.704;38.274;2023-01-20T01:01:09;42.05;;;17.20;;
75864;SDS011;64510;46.704;38.274;2023-01-20T01:03:36;36.55;;;16.73;;
75864;SDS011;64510;46.704;38.274;2023-01-20T01:06:06;42.65;;;20.45;;
75864;SDS011;64510;46.704;38.274;2023-01-20T01:08:36;37.78;;;15.73;;
75864;SDS011;64510;46.704;38.274;2023-01-20T01:11:02;33.03;;;17.13;;
75864;SDS011;64510;46.704;38.274;2023-01-20T01:13:28;43.83;;;19.60;;
75864;SDS011;64510;46.704;38.274;2023-01-20T01:15:55;40.08;;;17.95;;
75864;SDS011;64510;46.704;38.274;2023-01-20T01:18:21;40.85;;;20.05;;
75864;SDS011;64510;46.704;38.274;2023-01-20T01:20:47;36.85;;;17.95;;
75864;SDS011;64510;46.704;38.274;2023-01-20T01:23:13;30.38;;;13.75;;
75864;SDS011;64510;46.704;38.274;2023-01-20T01:25:39;42.60;;;20.83;;
75864;SDS011;64510;46.704;38.274;2023-01-20T01:28:05;51.92;;;23.27;;
75864;SDS011;64510;46.704;38.274;2023-01-20T01:30:31;49.50;;;19.35;;
75864;SDS011;64510;46.704;38.274;2023-01-20T01:32:57;51.35;;;19.70;;
75864;SDS011;64510;46.704;38.274;2023-01-20T01:35:23;46.88;;;23.55;;
75864;SDS011;64510;46.704;38.274;2023-01-20T01:37:49;38.33;;;17.30;;
75864;SDS011;64510;46.704;38.274;2023-01-20T01:40:15;38.72;;;17.65;;
75864;SDS011;64510;46.704;38.274;2023-01-20T01:42:41;49.97;;;20.50;;
75864;SDS011;64510;46.704;38.274;2023-01-20T01:47:37;43.97;;;19.77;;
75864;SDS011;64510;46.704;38.274;2023-01-20T01:50:11;42.67;;;19.65;;
75864;SDS011;64510;46.704;38.274;2023-01-20T01:52:42;35.10;;;18.02;;
75864;SDS011;64510;46.704;38.274;2023-01-20T01:55:11;52.42;;;22.42;;
75864;SDS011;64510;46.704;38.274;2023-01-20T01:57:39;49.83;;;21.48;;
75864;SDS011;64510;46.704;38.274;2023-01-20T02:00:05;36.28;;;19.13;;
75864;SDS011;64510;46.704;38.274;2023-01-20T02:02:38;42.22;;;18.83;;
75864;SDS011;64510;46.704;38.274;2023-01-20T02:05:06;45.95;;;20.08;;
75864;SDS011;64510;46.704;38.274;2023-01-20T02:07:35;35.83;;;16.25;;
75864;SDS011;64510;46.704;38.274;2023-01-20T02:10:01;37.97;;;18.65;;
75864;SDS011;64510;46.704;38.274;2023-01-20T02:12:27;41.38;;;17.75;;
75864;SDS011;64510;46.704;38.274;2023-01-20T02:14:54;43.72;;;20.33;;
75864;SDS011;64510;46.704;38.274;2023-01-20T02:20:17;41.78;;;19.08;;
75864;SDS011;64510;46.704;38.274;2023-01-20T02:23:34;40.47;;;18.05;;
75864;SDS011;64510;46.704;38.274;2023-01-20T02:28:50;38.55;;;18.67;;
75864;SDS011;64510;46.704;38.274;2023-01-20T02:33:59;48.17;;;23.33;;
75864;SDS011;64510;46.704;38.274;2023-01-20T02:36:33;53.80;;;24.08;;
75864;SDS011;64510;46.704;38.274;2023-01-20T02:42:00;46.60;;;20.05;;
75864;SDS011;64510;46.704;38.274;2023-01-20T02:44:37;36.88;;;18.40;;
75864;SDS011;64510;46.704;38.274;2023-01-20T02:49:56;38.97;;;19.30;;
75864;SDS011;64510;46.704;38.274;2023-01-20T02:52:36;44.47;;;20.00;;
75864;SDS011;64510;46.704;38.274;2023-01-20T02:55:07;51.10;;;21.95;;
75864;SDS011;64510;46.704;38.274;2023-01-20T02:57:37;51.40;;;21.17;;
75864;SDS011;64510;46.704;38.274;2023-01-20T03:00:12;53.05;;;23.25;;
75864;SDS011;64510;46.704;38.274;2023-01-20T03:02:44;37.65;;;17.40;;
75864;SDS011;64510;46.704;38.274;2023-01-20T03:05:19;45.65;;;18.67;;
75864;SDS011;64510;46.704;38.274;2023-01-20T03:07:48;50.17;;;22.42;;
75864;SDS011;64510;46.704;38.274;2023-01-20T03:10:17;49.45;;;21.25;;
75864;SDS011;64510;46.704;38.274;2023-01-20T03:12:58;50.28;;;22.65;;
75864;SDS011;64510;46.704;38.274;2023-01-20T03:15:39;45.05;;;20.23;;
75864;SDS011;64510;46.704;38.274;2023-01-20T03:18:13;44.17;;;20.75;;
75864;SDS011;64510;46.704;38.274;2023-01-20T03:20:39;51.25;;;25.95;;
75864;SDS011;64510;46.704;38.274;2023-01-20T03:23:05;47.33;;;20.95;;
75864;SDS011;64510;46.704;38.274;2023-01-20T03:25:31;48.97;;;24.23;;
75864;SDS011;64510;46.704;38.274;2023-01-20T03:27:58;37.63;;;16.02;;
75864;SDS011;64510;46.704;38.274;2023-01-20T03:30:24;42.10;;;20.98;;
75864;SDS011;64510;46.704;38.274;2023-01-20T03:32:49;38.78;;;18.98;;
75864;SDS011;64510;46.704;38.274;2023-01-20T03:35:17;45.25;;;21.05;;
75864;SDS011;64510;46.704;38.274;2023-01-20T03:37:43;49.65;;;23.77;;
75864;SDS011;64510;46.704;38.274;2023-01-20T03:40:10;48.75;;;19.10;;
75864;SDS011;64510;46.704;38.274;2023-01-20T03:45:38;45.90;;;22.45;;
75864;SDS011;64510;46.704;38.274;2023-01-20T03:48:17;48.63;;;22.85;;
75864;SDS011;64510;46.704;38.274;2023-01-20T03:56:27;42.50;;;20.02;;
75864;SDS011;64510;46.704;38.274;2023-01-20T03:58:59;48.17;;;20.13;;
75864;SDS011;64510;46.704;38.274;2023-01-20T04:01:35;39.30;;;17.95;;
75864;SDS011;64510;46.704;38.274;2023-01-20T04:04:04;44.65;;;24.60;;
75864;SDS011;64510;46.704;38.274;2023-01-20T04:06:33;37.15;;;19.67;;
75864;SDS011;64510;46.704;38.274;2023-01-20T04:09:04;51.17;;;23.35;;
75864;SDS011;64510;46.704;38.274;2023-01-20T04:11:35;53.92;;;22.50;;
75864;SDS011;64510;46.704;38.274;2023-01-20T04:14:01;48.15;;;24.67;;
75864;SDS011;64510;46.704;38.274;2023-01-20T04:16:27;47.85;;;21.77;;
75864;SDS011;64510;46.704;38.274;2023-01-20T04:18:53;52.47;;;22.92;;
75864;SDS011;64510;46.704;38.274;2023-01-20T04:26:24;41.28;;;20.05;;
75864;SDS011;64510;46.704;38.274;2023-01-20T04:28:50;48.92;;;24.50;;
75864;SDS011;64510;46.704;38.274;2023-01-20T04:31:16;56.60;;;26.95;;
75864;SDS011;64510;46.704;38.274;2023-01-20T04:33:42;52.95;;;22.67;;
75864;SDS011;64510;46.704;38.274;2023-01-20T04:36:08;49.88;;;22.15;;
75864;SDS011;64510;46.704;38.274;2023-01-20T04:38:34;45.80;;;21.95;;
75864;SDS011;64510;46.704;38.274;2023-01-20T04:41:00;50.00;;;19.08;;
75864;SDS011;64510;46.704;38.274;2023-01-20T04:43:25;55.72;;;25.40;;
75864;SDS011;64510;46.704;38.274;2023-01-20T04:45:51;57.92;;;28.15;;
75864;SDS011;64510;46.704;38.274;2023-01-20T04:48:17;51.05;;;25.02;;
75864;SDS011;64510;46.704;38.274;2023-01-20T04:50:43;44.47;;;20.23;;
75864;SDS011;64510;46.704;38.274;2023-01-20T04:53:10;48.50;;;23.23;;
75864;SDS011;64510;46.704;38.274;2023-01-20T04:55:38;59.90;;;26.88;;
75864;SDS011;64510;46.704;38.274;2023-01-20T04:58:04;55.25;;;26.30;;
75864;SDS011;64510;46.704;38.274;2023-01-20T05:00:29;47.78;;;20.77;;
75864;SDS011;64510;46.704;38.274;2023-01-20T05:02:56;40.47;;;21.83;;
75864;SDS011;64510;46.704;38.274;2023-01-20T05:05:23;54.72;;;26.00;;
75864;SDS011;64510;46.704;38.274;2023-01-20T05:07:52;61.25;;;31.33;;
75864;SDS011;64510;46.704;38.274;2023-01-20T05:10:19;50.42;;;22.15;;
75864;SDS011;64510;46.704;38.274;2023-01-20T05:12:46;49.50;;;20.30;;
75864;SDS011;64510;46.704;38.274;2023-01-20T05:15:11;48.03;;;22.42;;
75864;SDS011;64510;46.704;38.274;2023-01-20T05:17:37;53.10;;;22.17;;
75864;SDS011;64510;46.704;38.274;2023-01-20T05:20:03;58.65;;;28.13;;
75864;SDS011;64510;46.704;38.274;2023-01-20T05:22:29;62.17;;;31.17;;
75864;SDS011;64510;46.704;38.274;2023-01-20T05:24:57;50.45;;;23.42;;
75864;SDS011;64510;46.704;38.274;2023-01-20T05:27:24;53.78;;;23.27;;
75864;SDS011;64510;46.704;38.274;2023-01-20T05:29:50;59.05;;;25.55;;
75864;SDS011;64510;46.704;38.274;2023-01-20T05:32:16;40.70;;;20.50;;
75864;SDS011;64510;46.704;38.274;2023-01-20T05:34:41;53.85;;;23.02;;
75864;SDS011;64510;46.704;38.274;2023-01-20T05:37:07;45.47;;;22.25;;
75864;SDS011;64510;46.704;38.274;2023-01-20T05:39:33;53.58;;;25.40;;
75864;SDS011;64510;46.704;38.274;2023-01-20T05:41:59;45.67;;;20.88;;
75864;SDS011;64510;46.704;38.274;2023-01-20T05:44:26;47.78;;;18.92;;
75864;SDS011;64510;46.704;38.274;2023-01-20T05:46:52;45.40;;;19.88;;
75864;SDS011;64510;46.704;38.274;2023-01-20T05:49:18;41.03;;;21.75;;
75864;SDS011;64510;46.704;38.274;2023-01-20T05:51:44;43.70;;;22.60;;
75864;SDS011;64510;46.704;38.274;2023-01-20T05:54:09;41.17;;;19.50;;
75864;SDS011;64510;46.704;38.274;2023-01-20T05:56:35;42.53;;;22.02;;
75864;SDS011;64510;46.704;38.274;2023-01-20T05:59:01;40.15;;;20.20;;
75864;SDS011;64510;46.704;38.274;2023-01-20T06:01:27;47.85;;;22.92;;
75864;SDS011;64510;46.704;38.274;2023-01-20T06:03:53;35.45;;;18.95;;
75864;SDS011;64510;46.704;38.274;2023-01-20T06:06:19;41.17;;;22.33;;
75864;SDS011;64510;46.704;38.274;2023-01-20T06:08:44;50.47;;;24.10;;
75864;SDS011;64510;46.704;38.274;2023-01-20T06:11:11;42.17;;;19.92;;
75864;SDS011;64510;46.704;38.274;2023-01-20T06:13:38;42.53;;;21.92;;
75864;SDS011;64510;46.704;38.274;2023-01-20T06:16:04;39.75;;;23.20;;
75864;SDS011;64510;46.704;38.274;2023-01-20T06:18:31;48.78;;;26.77;;
75864;SDS011;64510;46.704;38.274;2023-01-20T06:20:58;44.88;;;21.98;;
75864;SDS011;64510;46.704;38.274;2023-01-20T06:23:24;39.08;;;18.83;;
75864;SDS011;64510;46.704;38.274;2023-01-20T06:26:00;40.58;;;19.02;;
75864;SDS011;64510;46.704;38.274;2023-01-20T08:31:51;31.20;;;17.02;;
75864;SDS011;64510;46.704;38.274;2023-01-20T08:34:17;37.42;;;19.73;;
75864;SDS011;64510;46.704;38.274;2023-01-20T08:36:45;30.13;;;17.88;;
75864;SDS011;64510;46.704;38.274;2023-01-20T08:39:13;30.52;;;16.88;;
75864;SDS011;64510;46.704;38.274;2023-01-20T08:41:40;27.80;;;15.02;;
75864;SDS011;64510;46.704;38.274;2023-01-20T08:44:08;31.35;;;16.20;;
75864;SDS011;64510;46.704;38.274;2023-01-20T08:46:35;32.97;;;15.75;;
75864;SDS011;64510;46.704;38.274;2023-01-20T08:49:05;30.52;;;16.60;;
75864;SDS011;64510;46.704;38.274;2023-01-20T08:51:32;31.90;;;16.98;;
75864;SDS011;64510;46.704;38.274;2023-01-20T08:53:59;33.97;;;17.15;;
75864;SDS011;64510;46.704;38.274;2023-01-20T08:56:25;26.92;;;14.50;;
75864;SDS011;64510;46.704;38.274;2023-01-20T08:58:52;34.35;;;19.75;;
75864;SDS011;64510;46.704;38.274;2023-01-20T09:01:19;22.70;;;13.27;;
75864;SDS011;64510;46.704;38.274;2023-01-20T09:03:47;28.92;;;17.48;;
75864;SDS011;64510;46.704;38.274;2023-01-20T09:06:14;28.98;;;16.23;;
75864;SDS011;64510;46.704;38.274;2023-01-20T09:08:40;31.63;;;15.77;;
75864;SDS011;64510;46.704;38.274;2023-01-20T09:11:08;28.90;;;15.10;;
75864;SDS011;64510;46.704;38.274;2023-01-20T09:13:36;30.35;;;17.20;;
75864;SDS011;64510;46.704;38.274;2023-01-20T09:16:02;31.25;;;16.75;;
75864;SDS011;64510;46.704;38.274;2023-01-20T09:18:29;32.72;;;16.83;;
75864;SDS011;64510;46.704;38.274;2023-01-20T09:20:56;29.17;;;16.55;;
75864;SDS011;64510;46.704;38.274;2023-01-20T09:23:23;21.00;;;12.27;;
75864;SDS011;64510;46.704;38.274;2023-01-20T09:25:50;31.63;;;17.25;;
75864;SDS011;64510;46.704;38.274;2023-01-20T09:28:16;31.15;;;14.57;;
75864;SDS011;64510;46.704;38.274;2023-01-20T09:30:42;28.55;;;15.38;;
75864;SDS011;64510;46.704;38.274;2023-01-20T09:33:09;22.00;;;12.93;;
75864;SDS011;64510;46.704;38.274;2023-01-20T09:35:35;25.42;;;15.63;;
75864;SDS011;64510;46.704;38.274;2023-01-20T09:38:01;28.42;;;13.82;;
75864;SDS011;64510;46.704;38.274;2023-01-20T09:40:57;26.25;;;11.88;;
75864;SDS011;64510;46.704;38.274;2023-01-20T09:43:51;31.45;;;15.52;;
75864;SDS011;64510;46.704;38.274;2023-01-20T09:49:39;28.20;;;14.68;;
75864;SDS011;64510;46.704;38.274;2023-01-20T09:52:46;21.98;;;12.15;;
75864;SDS011;64510;46.704;38.274;2023-01-20T10:01:05;24.95;;;12.45;;
75864;SDS011;64510;46.704;38.274;2023-01-20T10:03:43;21.70;;;13.27;;
75864;SDS011;64510;46.704;38.274;2023-01-20T10:07:01;23.88;;;13.70;;
75864;SDS011;64510;46.704;38.274;2023-01-20T10:09:15;22.23;;;11.90;;
75864;SDS011;64510;46.704;38.274;2023-01-20T10:11:59;18.13;;;11.55;;
75864;SDS011;64510;46.704;38.274;2023-01-20T10:14:32;25.15;;;14.65;;
75864;SDS011;64510;46.704;38.274;2023-01-20T10:17:21;24.30;;;14.50;;
75864;SDS011;64510;46.704;38.274;2023-01-20T10:22:41;30.08;;;16.85;;
75864;SDS011;64510;46.704;38.274;2023-01-20T10:25:16;26.75;;;14.70;;
75864;SDS011;64510;46.704;38.274;2023-01-20T10:27:49;35.42;;;18.98;;
75864;SDS011;64510;46.704;38.274;2023-01-20T10:30:20;30.95;;;17.33;;
75864;SDS011;64510;46.704;38.274;2023-01-20T10:32:54;21.02;;;11.73;;
75864;SDS011;64510;46.704;38.274;2023-01-20T10:35:27;27.95;;;13.68;;
75864;SDS011;64510;46.704;38.274;2023-01-20T10:37:56;28.00;;;16.38;;
75864;SDS011;64510;46.704;38.274;2023-01-20T10:43:05;32.15;;;17.90;;
75864;SDS011;64510;46.704;38.274;2023-01-20T10:48:22;28.63;;;15.13;;
75864;SDS011;64510;46.704;38.274;2023-01-20T10:56:40;30.35;;;15.07;;
75864;SDS011;64510;46.704;38.274;2023-01-20T10:59:21;28.00;;;12.80;;
75864;SDS011;64510;46.704;38.274;2023-01-20T11:01:51;23.27;;;11.93;;
75864;SDS011;64510;46.704;38.274;2023-01-20T11:04:19;29.65;;;16.67;;
75864;SDS011;64510;46.704;38.274;2023-01-20T11:06:55;34.70;;;18.67;;
75864;SDS011;64510;46.704;38.274;2023-01-20T11:09:35;29.52;;;14.10;;
75864;SDS011;64510;46.704;38.274;2023-01-20T11:12:02;28.13;;;14.90;;
75864;SDS011;64510;46.704;38.274;2023-01-20T11:14:34;31.27;;;16.23;;
75864;SDS011;64510;46.704;38.274;2023-01-20T11:17:01;29.00;;;15.30;;
75864;SDS011;64510;46.704;38.274;2023-01-20T11:22:16;31.20;;;15.43;;
75864;SDS011;64510;46.704;38.274;2023-01-20T11:24:57;20.88;;;12.68;;
75864;SDS011;64510;46.704;38.274;2023-01-20T11:27:26;34.65;;;18.40;;
75864;SDS011;64510;46.704;38.274;2023-01-20T11:30:05;24.88;;;14.57;;
75864;SDS011;64510;46.704;38.274;2023-01-20T11:32:43;28.35;;;13.50;;
75864;SDS011;64510;46.704;38.274;2023-01-20T11:35:22;29.45;;;15.35;;
75864;SDS011;64510;46.704;38.274;2023-01-20T11:37:49;28.25;;;16.98;;
75864;SDS011;64510;46.704;38.274;2023-01-20T11:42:50;29.10;;;15.65;;
75864;SDS011;64510;46.704;38.274;2023-01-20T11:45:24;26.33;;;14.55;;
75864;SDS011;64510;46.704;38.274;2023-01-20T11:50:48;27.83;;;15.57;;
75864;SDS011;64510;46.704;38.274;2023-01-20T11:55:53;21.98;;;11.77;;
75864;SDS011;64510;46.704;38.274;2023-01-20T11:58:24;30.05;;;16.17;;
75864;SDS011;64510;46.704;38.274;2023-01-20T12:01:02;32.67;;;15.57;;
75864;SDS011;64510;46.704;38.274;2023-01-20T12:06:15;26.67;;;13.88;;
75864;SDS011;64510;46.704;38.274;2023-01-20T12:08:55;31.13;;;17.50;;
75864;SDS011;64510;46.704;38.274;2023-01-20T12:11:32;22.77;;;12.95;;
75864;SDS011;64510;46.704;38.274;2023-01-20T12:19:21;20.67;;;11.25;;
75864;SDS011;64510;46.704;38.274;2023-01-20T12:21:55;29.27;;;13.52;;
75864;SDS011;64510;46.704;38.274;2023-01-20T12:24:30;27.15;;;14.80;;
75864;SDS011;64510;46.704;38.274;2023-01-20T12:27:29;27.13;;;12.88;;
75864;SDS011;64510;46.704;38.274;2023-01-20T12:30:02;27.13;;;13.52;;
75864;SDS011;64510;46.704;38.274;2023-01-20T12:32:32;26.95;;;16.38;;
75864;SDS011;64510;46.704;38.274;2023-01-20T12:34:59;23.38;;;11.75;;
75864;SDS011;64510;46.704;38.274;2023-01-20T12:37:28;27.67;;;12.40;;
75864;SDS011;64510;46.704;38.274;2023-01-20T12:40:13;33.10;;;18.30;;
75864;SDS011;64510;46.704;38.274;2023-01-20T12:43:05;26.92;;;16.20;;
75864;SDS011;64510;46.704;38.274;2023-01-20T12:48:54;27.23;;;13.85;;
75864;SDS011;64510;46.704;38.274;2023-01-20T12:51:34;24.00;;;14.27;;
75864;SDS011;64510;46.704;38.274;2023-01-20T12:57:03;35.22;;;16.00;;
75864;SDS011;64510;46.704;38.274;2023-01-20T13:08:35;32.13;;;18.75;;
75864;SDS011;64510;46.704;38.274;2023-01-20T13:13:38;37.70;;;16.60;;
75864;SDS011;64510;46.704;38.274;2023-01-20T13:16:19;32.08;;;17.08;;
75864;SDS011;64510;46.704;38.274;2023-01-20T13:19:17;24.77;;;14.18;;
75864;SDS011;64510;46.704;38.274;2023-01-20T13:24:17;24.77;;;12.65;;
75864;SDS011;64510;46.704;38.274;2023-01-20T13:26:54;28.42;;;14.93;;
75864;SDS011;64510;46.704;38.274;2023-01-20T13:32:00;26.02;;;12.30;;
75864;SDS011;64510;46.704;38.274;2023-01-20T13:42:25;26.35;;;13.35;;
75864;SDS011;64510;46.704;38.274;2023-01-20T13:50:33;32.50;;;12.90;;
75864;SDS011;64510;46.704;38.274;2023-01-20T13:53:13;24.40;;;12.85;;
75864;SDS011;64510;46.704;38.274;2023-01-20T13:58:24;25.02;;;14.88;;
75864;SDS011;64510;46.704;38.274;2023-01-20T14:03:32;28.60;;;13.70;;
75864;SDS011;64510;46.704;38.274;2023-01-20T14:13:41;23.40;;;13.80;;
75864;SDS011;64510;46.704;38.274;2023-01-20T14:16:19;27.33;;;16.55;;
75864;SDS011;64510;46.704;38.274;2023-01-20T14:18:47;28.48;;;13.90;;
75864;SDS011;64510;46.704;38.274;2023-01-20T14:21:22;26.73;;;14.50;;
75864;SDS011;64510;46.704;38.274;2023-01-20T14:23:49;27.27;;;14.88;;
75864;SDS011;64510;46.704;38.274;2023-01-20T14:26:23;32.72;;;15.88;;
75864;SDS011;64510;46.704;38.274;2023-01-20T14:28:55;26.27;;;13.65;;
75864;SDS011;64510;46.704;38.274;2023-01-20T14:31:33;31.95;;;13.55;;
75864;SDS011;64510;46.704;38.274;2023-01-20T14:34:40;22.70;;;11.10;;
75864;SDS011;64510;46.704;38.274;2023-01-20T14:37:01;33.22;;;16.13;;
75864;SDS011;64510;46.704;38.274;2023-01-20T14:39:46;34.22;;;16.88;;
75864;SDS011;64510;46.704;38.274;2023-01-20T14:44:47;30.50;;;14.73;;
75864;SDS011;64510;46.704;38.274;2023-01-20T14:47:14;27.48;;;13.05;;
75864;SDS011;64510;46.704;38.274;2023-01-20T14:49:41;33.28;;;15.68;;
75864;SDS011;64510;46.704;38.274;2023-01-20T14:54:55;27.00;;;14.68;;
75864;SDS011;64510;46.704;38.274;2023-01-20T15:02:45;27.83;;;14.05;;
75864;SDS011;64510;46.704;38.274;2023-01-20T15:05:35;30.92;;;14.20;;
75864;SDS011;64510;46.704;38.274;2023-01-20T15:08:03;35.85;;;15.85;;
75864;SDS011;64510;46.704;38.274;2023-01-20T15:10:35;28.20;;;15.23;;
75864;SDS011;64510;46.704;38.274;2023-01-20T15:13:03;32.30;;;16.45;;
75864;SDS011;64510;46.704;38.274;2023-01-20T15:15:32;34.55;;;18.65;;
75864;SDS011;64510;46.704;38.274;2023-01-20T15:20:36;23.98;;;12.43;;
75864;SDS011;64510;46.704;38.274;2023-01-20T15:23:15;32.05;;;15.73;;
75864;SDS011;64510;46.704;38.274;2023-01-20T15:25:47;23.20;;;13.98;;
75864;SDS011;64510;46.704;38.274;2023-01-20T15:28:27;29.00;;;15.50;;
75864;SDS011;64510;46.704;38.274;2023-01-20T15:30:55;30.13;;;14.98;;
75864;SDS011;64510;46.704;38.274;2023-01-20T15:33:23;33.65;;;17.67;;
75864;SDS011;64510;46.704;38.274;2023-01-20T15:35:51;27.05;;;13.75;;
75864;SDS011;64510;46.704;38.274;2023-01-20T15:38:18;24.67;;;13.65;;
75864;SDS011;64510;46.704;38.274;2023-01-20T15:40:44;28.52;;;14.95;;
75864;SDS011;64510;46.704;38.274;2023-01-20T15:43:13;27.77;;;15.10;;
75864;SDS011;64510;46.704;38.274;2023-01-20T15:45:41;26.77;;;13.68;;
75864;SDS011;64510;46.704;38.274;2023-01-20T15:48:17;27.45;;;13.10;;
75864;SDS011;64510;46.704;38.274;2023-01-20T15:50:45;26.38;;;11.95;;
75864;SDS011;64510;46.704;38.274;2023-01-20T15:53:12;27.50;;;13.35;;
75864;SDS011;64510;46.704;38.274;2023-01-20T15:55:49;19.88;;;11.23;;
75864;SDS011;64510;46.704;38.274;2023-01-20T15:58:23;20.95;;;11.27;;
75864;SDS011;64510;46.704;38.274;2023-01-20T16:00:54;20.73;;;10.15;;
75864;SDS011;64510;46.704;38.274;2023-01-20T16:03:21;21.23;;;10.55;;
75864;SDS011;64510;46.704;38.274;2023-01-20T16:05:49;23.42;;;13.20;;
75864;SDS011;64510;46.704;38.274;2023-01-20T16:08:16;26.83;;;15.27;;
75864;SDS011;64510;46.704;38.274;2023-01-20T16:10:44;25.95;;;12.95;;
75864;SDS011;64510;46.704;38.274;2023-01-20T16:13:10;24.95;;;11.50;;
75864;SDS011;64510;46.704;38.274;2023-01-20T16:15:37;19.35;;;9.30;;
75864;SDS011;64510;46.704;38.274;2023-01-20T16:18:08;26.00;;;14.80;;
75864;SDS011;64510;46.704;38.274;2023-01-20T16:20:36;27.55;;;13.30;;
75864;SDS011;64510;46.704;38.274;2023-01-20T16:23:02;29.98;;;14.63;;
75864;SDS011;64510;46.704;38.274;2023-01-20T16:25:28;28.00;;;13.63;;
75864;SDS011;64510;46.704;38.274;2023-01-20T16:27:55;21.20;;;11.48;;
75864;SDS011;64510;46.704;38.274;2023-01-20T16:30:21;18.00;;;10.68;;
75864;SDS011;64510;46.704;38.274;2023-01-20T16:32:48;23.42;;;13.00;;
75864;SDS011;64510;46.704;38.274;2023-01-20T16:35:15;22.33;;;13.00;;
75864;SDS011;64510;46.704;38.274;2023-01-20T16:37:42;19.38;;;10.77;;
75864;SDS011;64510;46.704;38.274;2023-01-20T16:40:14;20.05;;;12.07;;
75864;SDS011;64510;46.704;38.274;2023-01-20T16:42:43;21.60;;;11.90;;
75864;SDS011;64510;46.704;38.274;2023-01-20T16:45:19;21.08;;;11.77;;
75864;SDS011;64510;46.704;38.274;2023-01-20T16:47:49;19.17;;;11.70;;
75864;SDS011;64510;46.704;38.274;2023-01-20T16:50:15;21.70;;;12.52;;
75864;SDS011;64510;46.704;38.274;2023-01-20T16:52:42;29.42;;;16.08;;
75864;SDS011;64510;46.704;38.274;2023-01-20T16:55:08;18.58;;;10.77;;
75864;SDS011;64510;46.704;38.274;2023-01-20T16:57:34;20.85;;;12.13;;
75864;SDS011;64510;46.704;38.274;2023-01-20T17:00:00;16.17;;;10.57;;
75864;SDS011;64510;46.704;38.274;2023-01-20T17:02:26;19.13;;;12.23;;
75864;SDS011;64510;46.704;38.274;2023-01-20T17:04:51;21.90;;;12.32;;
75864;SDS011;64510;46.704;38.274;2023-01-20T17:07:17;19.40;;;9.30;;
75864;SDS011;64510;46.704;38.274;2023-01-20T17:09:43;22.73;;;13.43;;
75864;SDS011;64510;46.704;38.274;2023-01-20T17:12:09;18.55;;;11.38;;
75864;SDS011;64510;46.704;38.274;2023-01-20T17:14:35;16.20;;;9.05;;
75864;SDS011;64510;46.704;38.274;2023-01-20T17:17:01;19.35;;;10.70;;
75864;SDS011;64510;46.704;38.274;2023-01-20T17:19:27;18.40;;;10.68;;
75864;SDS011;64510;46.704;38.274;2023-01-20T17:21:53;21.42;;;11.57;;
75864;SDS011;64510;46.704;38.274;2023-01-20T17:24:20;16.83;;;8.95;;
75864;SDS011;64510;46.704;38.274;2023-01-20T17:26:46;20.52;;;11.23;;
75864;SDS011;64510;46.704;38.274;2023-01-20T17:29:12;21.30;;;10.68;;
75864;SDS011;64510;46.704;38.274;2023-01-20T17:31:38;19.73;;;9.88;;
75864;SDS011;64510;46.704;38.274;2023-01-20T17:34:05;28.63;;;12.00;;
75864;SDS011;64510;46.704;38.274;2023-01-20T17:36:31;18.55;;;11.50;;
75864;SDS011;64510;46.704;38.274;2023-01-20T17:38:59;17.33;;;10.50;;
75864;SDS011;64510;46.704;38.274;2023-01-20T17:41:26;18.88;;;10.95;;
75864;SDS011;64510;46.704;38.274;2023-01-20T17:43:52;17.73;;;10.60;;
75864;SDS011;64510;46.704;38.274;2023-01-20T17:46:19;18.92;;;10.60;;
75864;SDS011;64510;46.704;38.274;2023-01-20T17:48:47;31.80;;;11.93;;
75864;SDS011;64510;46.704;38.274;2023-01-20T17:51:14;15.52;;;9.90;;
75864;SDS011;64510;46.704;38.274;2023-01-20T17:53:41;22.95;;;12.43;;
75864;SDS011;64510;46.704;38.274;2023-01-20T17:56:08;21.30;;;12.48;;
75864;SDS011;64510;46.704;38.274;2023-01-20T17:58:35;22.20;;;10.48;;
75864;SDS011;64510;46.704;38.274;2023-01-20T18:01:34;21.55;;;10.18;;
75864;SDS011;64510;46.704;38.274;2023-01-20T18:03:55;25.40;;;11.73;;
75864;SDS011;64510;46.704;38.274;2023-01-20T18:06:23;17.67;;;9.55;;
75864;SDS011;64510;46.704;38.274;2023-01-20T18:08:50;16.10;;;9.13;;
75864;SDS011;64510;46.704;38.274;2023-01-20T18:13:50;21.40;;;11.18;;
75864;SDS011;64510;46.704;38.274;2023-01-20T18:16:19;21.42;;;11.05;;
75864;SDS011;64510;46.704;38.274;2023-01-20T18:18:46;16.25;;;9.90;;
75864;SDS011;64510;46.704;38.274;2023-01-20T18:21:23;16.85;;;8.20;;
75864;SDS011;64510;46.704;38.274;2023-01-20T18:23:51;12.55;;;7.38;;
75864;SDS011;64510;46.704;38.274;2023-01-20T18:26:18;19.80;;;8.82;;
75864;SDS011;64510;46.704;38.274;2023-01-20T18:28:45;18.85;;;9.30;;
75864;SDS011;64510;46.704;38.274;2023-01-20T18:31:14;14.57;;;9.80;;
75864;SDS011;64510;46.704;38.274;2023-01-20T18:33:46;20.35;;;11.55;;
75864;SDS011;64510;46.704;38.274;2023-01-20T18:36:20;15.95;;;8.85;;
75864;SDS011;64510;46.704;38.274;2023-01-20T18:38:58;15.38;;;9.77;;
75864;SDS011;64510;46.704;38.274;2023-01-20T18:41:29;17.38;;;8.55;;
75864;SDS011;64510;46.704;38.274;2023-01-20T18:43:57;18.20;;;10.18;;